sensor_id;sensor_type;location;lat;lon;timestamp;pressure;altitude;pressure_sealevel;temperature;humidity
8637;BME280;4356;49.068;8.658;2022-09-09T00:04:03;99474.41;;;25.76;40.19
8637;BME280;4356;49.068;8.658;2022-09-09T00:06:43;99467.81;;;25.72;40.09
8637;BME280;4356;49.068;8.658;2022-09-09T00:09:17;99463.66;;;25.75;40.23
8637;BME280;4356;49.068;8.658;2022-09-09T00:11:47;99460.94;;;25.70;40.08
8637;BME280;4356;49.068;8.658;2022-09-09T00:14:30;99477.69;;;25.73;39.90
8637;BME280;4356;49.068;8.658;2022-09-09T00:17:39;99474.94;;;25.73;39.97
8637;BME280;4356;49.068;8.658;2022-09-09T00:20:29;99454.06;;;25.72;40.11
8637;BME280;4356;49.068;8.658;2022-09-09T00:23:03;99469.19;;;25.70;40.20
8637;BME280;4356;49.068;8.658;2022-09-09T00:25:39;99472.75;;;25.70;40.31
8637;BME280;4356;49.068;8.658;2022-09-09T00:28:19;99456.81;;;25.67;40.27
8637;BME280;4356;49.068;8.658;2022-09-09T00:30:46;99463.97;;;25.68;40.17
8637;BME280;4356;49.068;8.658;2022-09-09T00:33:18;99467.25;;;25.70;40.05
8637;BME280;4356;49.068;8.658;2022-09-09T00:35:52;99465.59;;;25.69;40.28
8637;BME280;4356;49.068;8.658;2022-09-09T00:41:03;99471.38;;;25.68;40.26
8637;BME280;4356;49.068;8.658;2022-09-09T00:43:32;99478.28;;;25.70;40.42
8637;BME280;4356;49.068;8.658;2022-09-09T00:52:03;99470.59;;;25.67;40.53
8637;BME280;4356;49.068;8.658;2022-09-09T00:55:11;99475.81;;;25.69;40.28
8637;BME280;4356;49.068;8.658;2022-09-09T00:57:40;99467.00;;;25.67;40.79
8637;BME280;4356;49.068;8.658;2022-09-09T01:00:20;99481.84;;;25.66;40.73
8637;BME280;4356;49.068;8.658;2022-09-09T01:05:44;99471.66;;;25.66;40.66
8637;BME280;4356;49.068;8.658;2022-09-09T01:10:54;99467.53;;;25.64;40.48
8637;BME280;4356;49.068;8.658;2022-09-09T01:13:29;99470.03;;;25.65;40.39
8637;BME280;4356;49.068;8.658;2022-09-09T01:16:00;99480.22;;;25.65;40.53
8637;BME280;4356;49.068;8.658;2022-09-09T01:18:57;99478.84;;;25.62;40.22
8637;BME280;4356;49.068;8.658;2022-09-09T01:22:05;99483.78;;;25.65;40.20
8637;BME280;4356;49.068;8.658;2022-09-09T01:24:45;99487.63;;;25.64;40.44
8637;BME280;4356;49.068;8.658;2022-09-09T01:27:18;99492.59;;;25.62;40.45
8637;BME280;4356;49.068;8.658;2022-09-09T01:29:46;99497.28;;;25.62;40.44
8637;BME280;4356;49.068;8.658;2022-09-09T01:32:41;99502.50;;;25.63;40.72
8637;BME280;4356;49.068;8.658;2022-09-09T01:35:13;99499.22;;;25.61;40.64
8637;BME280;4356;49.068;8.658;2022-09-09T01:37:40;99506.63;;;25.61;40.97
8637;BME280;4356;49.068;8.658;2022-09-09T01:40:06;99497.53;;;25.60;40.48
8637;BME280;4356;49.068;8.658;2022-09-09T01:42:32;99503.03;;;25.60;40.52
8637;BME280;4356;49.068;8.658;2022-09-09T01:44:58;99505.28;;;25.58;40.57
8637;BME280;4356;49.068;8.658;2022-09-09T01:47:24;99506.63;;;25.61;40.59
8637;BME280;4356;49.068;8.658;2022-09-09T01:49:49;99507.75;;;25.60;40.41
8637;BME280;4356;49.068;8.658;2022-09-09T01:52:15;99494.28;;;25.58;40.41
8637;BME280;4356;49.068;8.658;2022-09-09T01:54:41;99502.78;;;25.57;40.27
8637;BME280;4356;49.068;8.658;2022-09-09T01:57:10;99514.34;;;25.59;40.14
8637;BME280;4356;49.068;8.658;2022-09-09T02:02:36;99493.16;;;25.54;40.31
8637;BME280;4356;49.068;8.658;2022-09-09T02:05:38;99495.38;;;25.52;40.58
8637;BME280;4356;49.068;8.658;2022-09-09T02:08:09;99500.03;;;25.52;40.57
8637;BME280;4356;49.068;8.658;2022-09-09T02:10:45;99493.72;;;25.51;40.29
8637;BME280;4356;49.068;8.658;2022-09-09T02:13:15;99494.00;;;25.50;40.65
8637;BME280;4356;49.068;8.658;2022-09-09T02:18:28;99478.03;;;25.47;40.81
8637;BME280;4356;49.068;8.658;2022-09-09T02:20:56;99487.69;;;25.49;40.55
8637;BME280;4356;49.068;8.658;2022-09-09T02:23:23;99487.94;;;25.48;40.68
8637;BME280;4356;49.068;8.658;2022-09-09T02:25:50;99477.75;;;25.48;40.46
8637;BME280;4356;49.068;8.658;2022-09-09T02:28:19;99465.69;;;25.49;40.48
8637;BME280;4356;49.068;8.658;2022-09-09T02:30:48;99467.31;;;25.50;40.28
8637;BME280;4356;49.068;8.658;2022-09-09T02:33:19;99469.22;;;25.50;40.46
8637;BME280;4356;49.068;8.658;2022-09-09T02:35:46;99464.84;;;25.49;40.24
8637;BME280;4356;49.068;8.658;2022-09-09T02:38:13;99468.44;;;25.49;40.37
8637;BME280;4356;49.068;8.658;2022-09-09T02:40:40;99462.91;;;25.49;40.35
8637;BME280;4356;49.068;8.658;2022-09-09T02:43:05;99456.59;;;25.49;40.44
8637;BME280;4356;49.068;8.658;2022-09-09T02:45:36;99450.53;;;25.47;40.12
8637;BME280;4356;49.068;8.658;2022-09-09T02:48:30;99446.13;;;25.51;40.46
8637;BME280;4356;49.068;8.658;2022-09-09T02:51:27;99439.78;;;25.50;40.49
8637;BME280;4356;49.068;8.658;2022-09-09T02:54:14;99432.09;;;25.47;40.33
8637;BME280;4356;49.068;8.658;2022-09-09T02:56:47;99435.41;;;25.49;40.58
8637;BME280;4356;49.068;8.658;2022-09-09T02:59:16;99434.03;;;25.47;40.40
8637;BME280;4356;49.068;8.658;2022-09-09T03:01:43;99443.38;;;25.45;40.39
8637;BME280;4356;49.068;8.658;2022-09-09T03:04:09;99453.56;;;25.50;40.35
8637;BME280;4356;49.068;8.658;2022-09-09T03:06:35;99441.16;;;25.48;40.23
8637;BME280;4356;49.068;8.658;2022-09-09T03:09:01;99451.63;;;25.45;40.42
8637;BME280;4356;49.068;8.658;2022-09-09T03:11:28;99459.06;;;25.50;40.39
8637;BME280;4356;49.068;8.658;2022-09-09T03:13:54;99443.09;;;25.42;40.57
8637;BME280;4356;49.068;8.658;2022-09-09T03:16:22;99456.59;;;25.49;40.73
8637;BME280;4356;49.068;8.658;2022-09-09T03:18:48;99449.16;;;25.49;40.39
8637;BME280;4356;49.068;8.658;2022-09-09T03:21:13;99445.03;;;25.47;40.55
8637;BME280;4356;49.068;8.658;2022-09-09T03:23:39;99447.50;;;25.48;40.71
8637;BME280;4356;49.068;8.658;2022-09-09T03:26:05;99441.72;;;25.50;40.52
8637;BME280;4356;49.068;8.658;2022-09-09T03:28:31;99454.91;;;25.48;40.57
8637;BME280;4356;49.068;8.658;2022-09-09T03:31:01;99453.00;;;25.48;40.67
8637;BME280;4356;49.068;8.658;2022-09-09T03:33:27;99441.72;;;25.44;40.58
8637;BME280;4356;49.068;8.658;2022-09-09T03:35:52;99450.25;;;25.48;40.49
8637;BME280;4356;49.068;8.658;2022-09-09T03:38:18;99451.38;;;25.47;40.70
8637;BME280;4356;49.068;8.658;2022-09-09T03:40:51;99471.97;;;25.50;40.66
8637;BME280;4356;49.068;8.658;2022-09-09T03:43:20;99459.63;;;25.47;40.58
8637;BME280;4356;49.068;8.658;2022-09-09T03:45:47;99462.63;;;25.45;40.43
8637;BME280;4356;49.068;8.658;2022-09-09T03:48:13;99469.78;;;25.47;40.59
8637;BME280;4356;49.068;8.658;2022-09-09T03:50:46;99460.72;;;25.46;40.59
8637;BME280;4356;49.068;8.658;2022-09-09T03:53:14;99464.00;;;25.48;40.39
8637;BME280;4356;49.068;8.658;2022-09-09T03:55:44;99455.22;;;25.46;40.42
8637;BME280;4356;49.068;8.658;2022-09-09T03:58:11;99455.22;;;25.46;40.49
8637;BME280;4356;49.068;8.658;2022-09-09T04:00:37;99461.81;;;25.45;40.59
8637;BME280;4356;49.068;8.658;2022-09-09T04:03:09;99461.28;;;25.43;40.41
8637;BME280;4356;49.068;8.658;2022-09-09T04:05:34;99461.28;;;25.43;40.66
8637;BME280;4356;49.068;8.658;2022-09-09T04:08:00;99464.84;;;25.43;40.48
8637;BME280;4356;49.068;8.658;2022-09-09T04:10:26;99458.53;;;25.43;40.56
8637;BME280;4356;49.068;8.658;2022-09-09T04:12:52;99466.50;;;25.44;40.64
8637;BME280;4356;49.068;8.658;2022-09-09T04:15:18;99473.63;;;25.45;40.71
8637;BME280;4356;49.068;8.658;2022-09-09T04:17:44;99458.25;;;25.39;40.57
8637;BME280;4356;49.068;8.658;2022-09-09T04:20:09;99467.06;;;25.41;40.46
8637;BME280;4356;49.068;8.658;2022-09-09T04:22:37;99473.38;;;25.42;40.54
8637;BME280;4356;49.068;8.658;2022-09-09T04:25:05;99478.06;;;25.41;40.47
8637;BME280;4356;49.068;8.658;2022-09-09T04:27:31;99481.91;;;25.40;40.53
8637;BME280;4356;49.068;8.658;2022-09-09T04:29:57;99490.69;;;25.42;40.47
8637;BME280;4356;49.068;8.658;2022-09-09T04:32:23;99485.19;;;25.42;40.34
8637;BME280;4356;49.068;8.658;2022-09-09T04:34:54;99483.56;;;25.41;40.30
8637;BME280;4356;49.068;8.658;2022-09-09T04:37:20;99488.22;;;25.41;40.16
8637;BME280;4356;49.068;8.658;2022-09-09T04:39:46;99485.47;;;25.41;40.14
8637;BME280;4356;49.068;8.658;2022-09-09T04:42:11;99501.16;;;25.40;40.31
8637;BME280;4356;49.068;8.658;2022-09-09T04:44:37;99479.13;;;25.35;40.32
8637;BME280;4356;49.068;8.658;2022-09-09T04:47:02;99496.78;;;25.39;40.18
8637;BME280;4356;49.068;8.658;2022-09-09T04:49:28;99491.25;;;25.39;40.30
8637;BME280;4356;49.068;8.658;2022-09-09T04:51:56;99495.09;;;25.38;40.22
8637;BME280;4356;49.068;8.658;2022-09-09T04:54:22;99490.13;;;25.35;40.26
8637;BME280;4356;49.068;8.658;2022-09-09T04:56:50;99501.44;;;25.39;40.32
8637;BME280;4356;49.068;8.658;2022-09-09T04:59:16;99502.56;;;25.38;40.31
8637;BME280;4356;49.068;8.658;2022-09-09T05:01:41;99496.75;;;25.34;40.32
8637;BME280;4356;49.068;8.658;2022-09-09T05:04:07;99508.28;;;25.36;40.26
8637;BME280;4356;49.068;8.658;2022-09-09T05:06:34;99509.97;;;25.37;40.09
8637;BME280;4356;49.068;8.658;2022-09-09T05:09:01;99505.00;;;25.34;40.17
8637;BME280;4356;49.068;8.658;2022-09-09T05:11:29;99510.22;;;25.36;40.16
8637;BME280;4356;49.068;8.658;2022-09-09T05:13:55;99503.06;;;25.35;39.87
8637;BME280;4356;49.068;8.658;2022-09-09T05:16:23;99514.59;;;25.37;39.80
8637;BME280;4356;49.068;8.658;2022-09-09T05:18:49;99511.03;;;25.36;39.81
8637;BME280;4356;49.068;8.658;2022-09-09T05:21:18;99512.72;;;25.37;39.73
8637;BME280;4356;49.068;8.658;2022-09-09T05:23:45;99505.81;;;25.35;39.80
8637;BME280;4356;49.068;8.658;2022-09-09T05:26:17;99508.59;;;25.40;39.94
8637;BME280;4356;49.068;8.658;2022-09-09T05:28:43;99513.53;;;25.43;39.74
8637;BME280;4356;49.068;8.658;2022-09-09T05:31:10;99509.41;;;25.40;39.78
8637;BME280;4356;49.068;8.658;2022-09-09T05:33:40;99507.78;;;25.39;40.01
8637;BME280;4356;49.068;8.658;2022-09-09T05:36:08;99527.84;;;25.45;39.67
8637;BME280;4356;49.068;8.658;2022-09-09T05:38:34;99511.06;;;25.41;39.86
8637;BME280;4356;49.068;8.658;2022-09-09T05:41:01;99522.34;;;25.45;39.85
8637;BME280;4356;49.068;8.658;2022-09-09T05:43:28;99520.94;;;25.48;39.73
8637;BME280;4356;49.068;8.658;2022-09-09T05:48:31;99518.47;;;25.46;39.87
8637;BME280;4356;49.068;8.658;2022-09-09T05:50:58;99517.13;;;25.49;39.84
8637;BME280;4356;49.068;8.658;2022-09-09T05:53:25;99522.91;;;25.47;39.75
8637;BME280;4356;49.068;8.658;2022-09-09T05:55:59;99523.16;;;25.51;39.78
8637;BME280;4356;49.068;8.658;2022-09-09T05:58:25;99515.19;;;25.49;39.61
8637;BME280;4356;49.068;8.658;2022-09-09T06:00:51;99508.56;;;25.50;39.63
8637;BME280;4356;49.068;8.658;2022-09-09T06:03:16;99514.91;;;25.51;39.74
8637;BME280;4356;49.068;8.658;2022-09-09T06:05:42;99523.97;;;25.51;39.94
8637;BME280;4356;49.068;8.658;2022-09-09T06:08:07;99521.22;;;25.46;39.72
8637;BME280;4356;49.068;8.658;2022-09-09T06:10:34;99525.66;;;25.47;39.68
8637;BME280;4356;49.068;8.658;2022-09-09T06:12:59;99522.34;;;25.45;39.58
8637;BME280;4356;49.068;8.658;2022-09-09T06:15:25;99518.78;;;25.39;39.52
8637;BME280;4356;49.068;8.658;2022-09-09T06:17:55;99527.84;;;25.40;39.38
8637;BME280;4356;49.068;8.658;2022-09-09T06:20:21;99530.63;;;25.40;39.47
8637;BME280;4356;49.068;8.658;2022-09-09T06:22:47;99531.09;;;25.37;39.67
8637;BME280;4356;49.068;8.658;2022-09-09T06:25:14;99548.19;;;25.39;39.68
8637;BME280;4356;49.068;8.658;2022-09-09T06:27:39;99529.19;;;25.32;39.62
8637;BME280;4356;49.068;8.658;2022-09-09T06:30:06;99531.69;;;25.34;39.42
8637;BME280;4356;49.068;8.658;2022-09-09T06:32:32;99532.75;;;25.33;39.60
8637;BME280;4356;49.068;8.658;2022-09-09T06:35:00;99514.06;;;25.25;39.63
8637;BME280;4356;49.068;8.658;2022-09-09T06:37:26;99537.75;;;25.31;39.71
8637;BME280;4356;49.068;8.658;2022-09-09T06:39:52;99545.72;;;25.32;39.61
8637;BME280;4356;49.068;8.658;2022-09-09T06:42:20;99533.31;;;25.25;39.82
8637;BME280;4356;49.068;8.658;2022-09-09T06:44:48;99552.56;;;25.30;40.00
8637;BME280;4356;49.068;8.658;2022-09-09T06:47:13;99544.31;;;25.30;39.64
8637;BME280;4356;49.068;8.658;2022-09-09T06:49:39;99540.19;;;25.27;39.95
8637;BME280;4356;49.068;8.658;2022-09-09T06:52:04;99542.41;;;25.30;39.80
8637;BME280;4356;49.068;8.658;2022-09-09T06:54:30;99542.13;;;25.27;40.19
8637;BME280;4356;49.068;8.658;2022-09-09T06:56:56;99541.28;;;25.26;39.89
8637;BME280;4356;49.068;8.658;2022-09-09T06:59:21;99534.16;;;25.25;39.67
8637;BME280;4356;49.068;8.658;2022-09-09T07:01:47;99539.38;;;25.27;40.19
8637;BME280;4356;49.068;8.658;2022-09-09T07:04:13;99533.88;;;25.27;40.17
8637;BME280;4356;49.068;8.658;2022-09-09T07:06:44;99530.28;;;25.26;40.12
8637;BME280;4356;49.068;8.658;2022-09-09T07:09:12;99543.75;;;25.28;39.73
8637;BME280;4356;49.068;8.658;2022-09-09T07:11:49;99531.13;;;25.27;40.23
8637;BME280;4356;49.068;8.658;2022-09-09T07:14:16;99541.28;;;25.26;40.23
8637;BME280;4356;49.068;8.658;2022-09-09T07:16:43;99551.47;;;25.26;40.19
8637;BME280;4356;49.068;8.658;2022-09-09T07:19:10;99552.28;;;25.31;41.00
8637;BME280;4356;49.068;8.658;2022-09-09T07:21:36;99533.59;;;25.33;40.82
8637;BME280;4356;49.068;8.658;2022-09-09T07:24:05;99519.56;;;25.30;40.68
8637;BME280;4356;49.068;8.658;2022-09-09T07:26:33;99533.31;;;25.35;40.68
8637;BME280;4356;49.068;8.658;2022-09-09T07:28:59;99529.47;;;25.36;41.04
8637;BME280;4356;49.068;8.658;2022-09-09T07:31:30;99533.03;;;25.36;40.90
8637;BME280;4356;49.068;8.658;2022-09-09T07:33:56;99531.09;;;25.37;41.30
8637;BME280;4356;49.068;8.658;2022-09-09T07:39:03;99543.81;;;25.38;41.24
8637;BME280;4356;49.068;8.658;2022-09-09T07:41:33;99544.59;;;25.33;40.80
8637;BME280;4356;49.068;8.658;2022-09-09T07:43:59;99552.63;;;25.40;41.09
8637;BME280;4356;49.068;8.658;2022-09-09T07:46:28;99548.19;;;25.44;40.98
8637;BME280;4356;49.068;8.658;2022-09-09T07:48:57;99548.47;;;25.42;41.13
8637;BME280;4356;49.068;8.658;2022-09-09T07:51:26;99549.84;;;25.45;41.17
8637;BME280;4356;49.068;8.658;2022-09-09T07:54:00;99552.88;;;25.49;41.16
8637;BME280;4356;49.068;8.658;2022-09-09T07:56:27;99545.16;;;25.45;41.56
8637;BME280;4356;49.068;8.658;2022-09-09T07:58:55;99550.97;;;25.49;41.40
8637;BME280;4356;49.068;8.658;2022-09-09T08:01:27;99551.78;;;25.50;42.08
8637;BME280;4356;49.068;8.658;2022-09-09T08:03:58;99546.81;;;25.52;41.80
8637;BME280;4356;49.068;8.658;2022-09-09T08:06:26;99540.22;;;25.53;41.45
8637;BME280;4356;49.068;8.658;2022-09-09T08:08:52;99547.94;;;25.51;41.47
8637;BME280;4356;49.068;8.658;2022-09-09T08:11:21;99545.97;;;25.51;41.46
8637;BME280;4356;49.068;8.658;2022-09-09T08:13:49;99534.72;;;25.42;42.15
8637;BME280;4356;49.068;8.658;2022-09-09T08:16:18;99533.63;;;25.49;41.90
8637;BME280;4356;49.068;8.658;2022-09-09T08:18:44;99538.00;;;25.55;41.52
8637;BME280;4356;49.068;8.658;2022-09-09T08:21:19;99559.75;;;25.61;41.35
8637;BME280;4356;49.068;8.658;2022-09-09T08:23:46;99555.34;;;25.60;41.35
8637;BME280;4356;49.068;8.658;2022-09-09T08:26:17;99555.88;;;25.62;41.52
8637;BME280;4356;49.068;8.658;2022-09-09T08:28:49;99556.44;;;25.64;41.11
8637;BME280;4356;49.068;8.658;2022-09-09T08:33:44;99550.38;;;25.62;41.23
8637;BME280;4356;49.068;8.658;2022-09-09T08:36:24;99559.75;;;25.66;41.47
8637;BME280;4356;49.068;8.658;2022-09-09T08:38:52;99552.59;;;25.65;41.46
8637;BME280;4356;49.068;8.658;2022-09-09T08:43:58;99561.66;;;25.76;41.50
8637;BME280;4356;49.068;8.658;2022-09-09T08:46:31;99557.25;;;25.75;41.23
8637;BME280;4356;49.068;8.658;2022-09-09T08:51:38;99563.81;;;25.84;40.92
8637;BME280;4356;49.068;8.658;2022-09-09T08:54:04;99581.72;;;25.86;40.86
8637;BME280;4356;49.068;8.658;2022-09-09T08:56:32;99595.50;;;25.86;40.76
8637;BME280;4356;49.068;8.658;2022-09-09T08:59:00;99587.50;;;25.90;40.93
8637;BME280;4356;49.068;8.658;2022-09-09T09:11:41;99600.16;;;25.96;42.01
8637;BME280;4356;49.068;8.658;2022-09-09T09:14:15;99593.81;;;26.00;41.88
8637;BME280;4356;49.068;8.658;2022-09-09T09:17:06;99589.16;;;26.06;42.21
8637;BME280;4356;49.068;8.658;2022-09-09T09:19:35;99580.59;;;26.07;41.52
8637;BME280;4356;49.068;8.658;2022-09-09T09:25:09;99586.09;;;26.17;41.21
8637;BME280;4356;49.068;8.658;2022-09-09T09:30:14;99572.31;;;26.22;41.10
8637;BME280;4356;49.068;8.658;2022-09-09T09:32:49;99567.06;;;26.26;41.04
8637;BME280;4356;49.068;8.658;2022-09-09T09:35:17;99560.47;;;26.27;41.16
8637;BME280;4356;49.068;8.658;2022-09-09T09:37:42;99552.72;;;26.29;41.18
8637;BME280;4356;49.068;8.658;2022-09-09T09:40:14;99554.09;;;26.31;41.29
8637;BME280;4356;49.068;8.658;2022-09-09T09:45:29;99568.09;;;26.40;41.03
8637;BME280;4356;49.068;8.658;2022-09-09T09:48:02;99569.47;;;26.42;41.00
8637;BME280;4356;49.068;8.658;2022-09-09T09:50:28;99567.28;;;26.44;40.73
8637;BME280;4356;49.068;8.658;2022-09-09T09:52:56;99567.53;;;26.48;40.83
8637;BME280;4356;49.068;8.658;2022-09-09T09:55:22;99570.53;;;26.52;40.81
8637;BME280;4356;49.068;8.658;2022-09-09T09:57:52;99568.06;;;26.50;40.93
8637;BME280;4356;49.068;8.658;2022-09-09T10:00:22;99572.44;;;26.56;40.69
8637;BME280;4356;49.068;8.658;2022-09-09T10:02:50;99561.16;;;26.58;40.52
8637;BME280;4356;49.068;8.658;2022-09-09T10:05:22;99566.09;;;26.61;40.63
8637;BME280;4356;49.068;8.658;2022-09-09T10:10:56;99564.72;;;26.68;40.27
8637;BME280;4356;49.068;8.658;2022-09-09T10:19:13;99558.56;;;26.81;39.73
8637;BME280;4356;49.068;8.658;2022-09-09T10:22:08;99556.31;;;26.88;39.77
8637;BME280;4356;49.068;8.658;2022-09-09T10:42:45;99559.06;;;27.32;38.98
8637;BME280;4356;49.068;8.658;2022-09-09T10:48:02;99562.56;;;27.42;38.85
8637;BME280;4356;49.068;8.658;2022-09-09T10:55:45;99563.06;;;27.50;38.44
8637;BME280;4356;49.068;8.658;2022-09-09T10:58:41;99572.19;;;27.50;37.83
8637;BME280;4356;49.068;8.658;2022-09-09T11:01:40;99572.72;;;27.47;38.08
8637;BME280;4356;49.068;8.658;2022-09-09T11:04:30;99577.47;;;27.41;38.27
8637;BME280;4356;49.068;8.658;2022-09-09T11:07:00;99578.88;;;27.39;38.07
8637;BME280;4356;49.068;8.658;2022-09-09T11:09:35;99581.16;;;27.32;37.84
8637;BME280;4356;49.068;8.658;2022-09-09T11:12:02;99570.63;;;27.29;37.58
8637;BME280;4356;49.068;8.658;2022-09-09T11:14:51;99573.13;;;27.30;37.97
8637;BME280;4356;49.068;8.658;2022-09-09T11:17:23;99578.13;;;27.28;37.67
8637;BME280;4356;49.068;8.658;2022-09-09T11:19:50;99573.41;;;27.29;37.77
8637;BME280;4356;49.068;8.658;2022-09-09T11:22:36;99572.88;;;27.32;37.71
8637;BME280;4356;49.068;8.658;2022-09-09T11:25:17;99564.59;;;27.32;37.67
8637;BME280;4356;49.068;8.658;2022-09-09T11:41:37;99555.72;;;27.35;37.12
8637;BME280;4356;49.068;8.658;2022-09-09T11:44:18;99547.16;;;27.36;37.24
8637;BME280;4356;49.068;8.658;2022-09-09T11:46:50;99544.41;;;27.36;36.79
8637;BME280;4356;49.068;8.658;2022-09-09T11:51:53;99534.72;;;27.39;36.99
8637;BME280;4356;49.068;8.658;2022-09-09T11:54:33;99523.09;;;27.42;36.42
8637;BME280;4356;49.068;8.658;2022-09-09T11:57:36;99518.66;;;27.46;36.74
8637;BME280;4356;49.068;8.658;2022-09-09T12:00:03;99510.09;;;27.48;36.66
8637;BME280;4356;49.068;8.658;2022-09-09T12:02:29;99504.56;;;27.48;36.46
8637;BME280;4356;49.068;8.658;2022-09-09T12:05:09;99511.16;;;27.52;36.62
8637;BME280;4356;49.068;8.658;2022-09-09T12:07:38;99513.63;;;27.53;36.63
8637;BME280;4356;49.068;8.658;2022-09-09T12:10:29;99493.72;;;27.56;36.17
8637;BME280;4356;49.068;8.658;2022-09-09T12:13:17;99510.28;;;27.56;36.06
8637;BME280;4356;49.068;8.658;2022-09-09T12:15:55;99527.38;;;27.58;35.82
8637;BME280;4356;49.068;8.658;2022-09-09T12:18:32;99515.78;;;27.56;35.85
8637;BME280;4356;49.068;8.658;2022-09-09T12:23:55;99524.59;;;27.58;35.80
8637;BME280;4356;49.068;8.658;2022-09-09T12:26:36;99512.72;;;27.58;35.47
8637;BME280;4356;49.068;8.658;2022-09-09T12:29:26;99501.19;;;27.56;35.54
8637;BME280;4356;49.068;8.658;2022-09-09T12:32:15;99503.06;;;27.60;35.48
8637;BME280;4356;49.068;8.658;2022-09-09T12:37:27;99485.38;;;27.61;35.40
8637;BME280;4356;49.068;8.658;2022-09-09T12:40:37;99498.59;;;27.64;35.11
8637;BME280;4356;49.068;8.658;2022-09-09T12:42:44;99485.66;;;27.60;35.39
8637;BME280;4356;49.068;8.658;2022-09-09T12:45:36;99490.03;;;27.66;35.32
8637;BME280;4356;49.068;8.658;2022-09-09T12:48:08;99500.25;;;27.65;35.38
8637;BME280;4356;49.068;8.658;2022-09-09T12:50:49;99497.47;;;27.65;34.86
8637;BME280;4356;49.068;8.658;2022-09-09T12:53:34;99502.13;;;27.70;35.26
8637;BME280;4356;49.068;8.658;2022-09-09T12:56:06;99497.72;;;27.69;35.33
8637;BME280;4356;49.068;8.658;2022-09-09T12:58:38;99506.78;;;27.74;34.93
8637;BME280;4356;49.068;8.658;2022-09-09T13:01:05;99510.34;;;27.75;35.01
8637;BME280;4356;49.068;8.658;2022-09-09T13:03:42;99515.66;;;27.71;35.06
8637;BME280;4356;49.068;8.658;2022-09-09T13:06:16;99504.06;;;27.69;34.65
8637;BME280;4356;49.068;8.658;2022-09-09T13:08:43;99503.00;;;27.65;35.02
8637;BME280;4356;49.068;8.658;2022-09-09T13:11:16;99496.72;;;27.60;35.03
8637;BME280;4356;49.068;8.658;2022-09-09T13:13:50;99500.28;;;27.60;35.03
8637;BME280;4356;49.068;8.658;2022-09-09T13:18:50;99523.28;;;27.56;34.87
8637;BME280;4356;49.068;8.658;2022-09-09T13:21:17;99529.06;;;27.54;35.01
8637;BME280;4356;49.068;8.658;2022-09-09T13:23:49;99521.06;;;27.53;35.63
8637;BME280;4356;49.068;8.658;2022-09-09T13:26:26;99521.97;;;27.48;36.19
8637;BME280;4356;49.068;8.658;2022-09-09T13:29:07;99518.41;;;27.42;36.38
8637;BME280;4356;49.068;8.658;2022-09-09T13:31:36;99528.03;;;27.45;37.19
8637;BME280;4356;49.068;8.658;2022-09-09T13:34:26;99532.16;;;27.48;36.91
8637;BME280;4356;49.068;8.658;2022-09-09T13:36:56;99527.78;;;27.47;36.87
8637;BME280;4356;49.068;8.658;2022-09-09T13:39:24;99517.00;;;27.45;37.13
8637;BME280;4356;49.068;8.658;2022-09-09T13:41:49;99523.06;;;27.47;37.54
8637;BME280;4356;49.068;8.658;2022-09-09T13:44:25;99515.91;;;27.46;38.13
8637;BME280;4356;49.068;8.658;2022-09-09T13:49:40;99510.38;;;27.46;37.61
8637;BME280;4356;49.068;8.658;2022-09-09T13:52:17;99504.63;;;27.42;38.17
8637;BME280;4356;49.068;8.658;2022-09-09T13:54:51;99500.16;;;27.47;38.04
8637;BME280;4356;49.068;8.658;2022-09-09T13:57:22;99498.22;;;27.47;37.91
8637;BME280;4356;49.068;8.658;2022-09-09T13:59:50;99491.88;;;27.47;38.05
8637;BME280;4356;49.068;8.658;2022-09-09T14:02:16;99494.34;;;27.48;38.40
8637;BME280;4356;49.068;8.658;2022-09-09T14:04:42;99495.16;;;27.49;38.61
8637;BME280;4356;49.068;8.658;2022-09-09T14:07:15;99476.44;;;27.46;37.95
8637;BME280;4356;49.068;8.658;2022-09-09T14:09:42;99479.44;;;27.49;37.55
8637;BME280;4356;49.068;8.658;2022-09-09T14:12:11;99475.56;;;27.50;37.75
8637;BME280;4356;49.068;8.658;2022-09-09T14:14:37;99483.56;;;27.52;37.67
8637;BME280;4356;49.068;8.658;2022-09-09T14:17:03;99480.78;;;27.52;38.17
8637;BME280;4356;49.068;8.658;2022-09-09T14:19:31;99485.13;;;27.58;37.84
8637;BME280;4356;49.068;8.658;2022-09-09T14:22:00;99493.66;;;27.61;37.88
8637;BME280;4356;49.068;8.658;2022-09-09T14:24:26;99498.91;;;27.63;37.29
8637;BME280;4356;49.068;8.658;2022-09-09T14:26:53;99498.06;;;27.62;37.11
8637;BME280;4356;49.068;8.658;2022-09-09T14:29:18;99502.19;;;27.65;37.38
8637;BME280;4356;49.068;8.658;2022-09-09T14:31:44;99503.81;;;27.66;37.42
8637;BME280;4356;49.068;8.658;2022-09-09T14:34:10;99502.44;;;27.68;37.50
8637;BME280;4356;49.068;8.658;2022-09-09T14:36:37;99509.88;;;27.68;37.46
8637;BME280;4356;49.068;8.658;2022-09-09T14:39:03;99498.84;;;27.68;37.53
8637;BME280;4356;49.068;8.658;2022-09-09T14:41:30;99505.47;;;27.67;37.51
8637;BME280;4356;49.068;8.658;2022-09-09T14:43:55;99515.13;;;27.69;37.78
8637;BME280;4356;49.068;8.658;2022-09-09T14:46:21;99504.38;;;27.68;38.03
8637;BME280;4356;49.068;8.658;2022-09-09T14:48:47;99517.03;;;27.69;38.00
8637;BME280;4356;49.068;8.658;2022-09-09T14:51:19;99513.47;;;27.68;38.92
8637;BME280;4356;49.068;8.658;2022-09-09T14:53:46;99522.03;;;27.67;38.44
8637;BME280;4356;49.068;8.658;2022-09-09T14:56:17;99516.25;;;27.63;37.99
8637;BME280;4356;49.068;8.658;2022-09-09T14:58:44;99512.97;;;27.61;38.11
8637;BME280;4356;49.068;8.658;2022-09-09T15:01:16;99507.50;;;27.56;37.89
8637;BME280;4356;49.068;8.658;2022-09-09T15:03:43;99505.88;;;27.55;38.42
8637;BME280;4356;49.068;8.658;2022-09-09T15:06:14;99500.91;;;27.52;38.64
8637;BME280;4356;49.068;8.658;2022-09-09T15:08:41;99506.72;;;27.51;39.09
8637;BME280;4356;49.068;8.658;2022-09-09T15:11:07;99503.50;;;27.43;38.82
8637;BME280;4356;49.068;8.658;2022-09-09T15:13:34;99510.69;;;27.39;39.12
8637;BME280;4356;49.068;8.658;2022-09-09T15:16:05;99546.78;;;27.48;39.28
8637;BME280;4356;49.068;8.658;2022-09-09T15:18:32;99551.78;;;27.46;39.00
8637;BME280;4356;49.068;8.658;2022-09-09T15:20:59;99540.50;;;27.42;39.08
8637;BME280;4356;49.068;8.658;2022-09-09T15:23:26;99542.41;;;27.42;39.07
8637;BME280;4356;49.068;8.658;2022-09-09T15:25:55;99535.81;;;27.38;39.48
8637;BME280;4356;49.068;8.658;2022-09-09T15:28:22;99524.84;;;27.33;39.73
8637;BME280;4356;49.068;8.658;2022-09-09T15:30:52;99526.47;;;27.34;39.83
8637;BME280;4356;49.068;8.658;2022-09-09T15:33:19;99520.97;;;27.29;40.42
8637;BME280;4356;49.068;8.658;2022-09-09T15:35:45;99525.16;;;27.26;40.37
8637;BME280;4356;49.068;8.658;2022-09-09T15:38:11;99526.53;;;27.24;41.10